createdAt,value
2018-11-13T00:00:34.255Z,149.97
2018-11-13T00:03:05.823Z,145.07
2018-11-13T00:05:35.660Z,151.70
2018-11-13T00:08:06.111Z,156.93
2018-11-13T00:10:35.420Z,149.07
2018-11-13T00:13:03.661Z,140.80
2018-11-13T00:15:38.123Z,146.07
2018-11-13T00:18:09.006Z,143.93
2018-11-13T00:20:40.065Z,139.17
2018-11-13T00:23:10.981Z,143.77
2018-11-13T00:25:40.582Z,138.60
2018-11-13T00:28:12.095Z,142.07
2018-11-13T00:30:45.085Z,150.20
2018-11-13T00:33:14.519Z,129.33
2018-11-13T00:35:46.717Z,147.37
2018-11-13T00:38:15.451Z,145.13
2018-11-13T00:40:44.427Z,139.53
2018-11-13T00:43:15.131Z,130.40
2018-11-13T00:45:45.775Z,141.83
2018-11-13T00:48:14.814Z,135.27
2018-11-13T00:50:45.783Z,126.13
2018-11-13T00:53:19.433Z,135.40
2018-11-13T00:55:50.671Z,128.63
2018-11-13T00:58:19.795Z,125.87
2018-11-13T01:00:50.076Z,120.20
2018-11-13T01:03:24.585Z,132.97
2018-11-13T01:05:53.903Z,137.70
2018-11-13T01:08:23.594Z,132.73
2018-11-13T01:10:54.379Z,112.43
2018-11-13T01:13:27.725Z,127.70
2018-11-13T01:15:57.481Z,140.90
2018-11-13T01:18:29.274Z,124.37
2018-11-13T01:21:02.516Z,118.60
2018-11-13T01:23:34.691Z,117.00
2018-11-13T01:26:03.975Z,121.80
2018-11-13T01:28:32.194Z,109.13
2018-11-13T01:31:02.877Z,119.43
2018-11-13T01:33:33.956Z,114.20
2018-11-13T01:36:02.108Z,114.00
2018-11-13T01:38:32.470Z,112.13
2018-11-13T01:41:02.154Z,108.50
2018-11-13T01:43:30.990Z,108.57
2018-11-13T01:46:00.633Z,103.60
2018-11-13T01:48:41.369Z,100.60
2018-11-13T01:51:10.506Z,96.43
2018-11-13T01:53:38.715Z,101.30
2018-11-13T01:56:06.740Z,108.97
2018-11-13T01:58:37.715Z,102.13
2018-11-13T02:01:12.265Z,102.63
2018-11-13T02:03:41.080Z,104.70
2018-11-13T02:06:11.347Z,88.70
2018-11-13T02:08:44.541Z,94.73
2018-11-13T02:11:14.479Z,93.40
2018-11-13T02:13:45.510Z,98.50
2018-11-13T02:16:14.335Z,100.60
2018-11-13T02:18:45.427Z,100.17
2018-11-13T02:21:17.461Z,100.63
2018-11-13T02:23:46.594Z,95.47
2018-11-13T02:26:16.809Z,91.57
2018-11-13T02:28:46.339Z,89.20
2018-11-13T02:31:15.147Z,91.17
2018-11-13T02:33:45.200Z,85.97
2018-11-13T02:36:15.494Z,99.37
2018-11-13T02:41:47.435Z,92.40
2018-11-13T02:44:21.234Z,101.67
2018-11-13T02:47:00.834Z,93.00
2018-11-13T02:49:31.125Z,92.23
2018-11-13T02:52:01.452Z,107.20
2018-11-13T02:54:39.610Z,84.93
2018-11-13T02:57:12.985Z,96.47
2018-11-13T02:59:45.954Z,88.27
2018-11-13T03:02:17.014Z,93.53
2018-11-13T03:04:47.882Z,98.13
2018-11-13T03:07:22.848Z,93.40
2018-11-13T03:09:53.672Z,95.60
2018-11-13T03:12:23.338Z,91.97
2018-11-13T03:14:53.852Z,93.37
2018-11-13T03:17:24.480Z,88.57
2018-11-13T03:19:55.660Z,94.87
2018-11-13T03:22:26.753Z,93.97
2018-11-13T03:24:58.043Z,92.03
2018-11-13T03:27:30.127Z,88.30
2018-11-13T03:30:01.746Z,85.37
2018-11-13T03:32:31.500Z,93.07
2018-11-13T03:35:01.598Z,94.70
2018-11-13T03:37:31.942Z,98.73
2018-11-13T03:40:01.308Z,87.10
2018-11-13T03:42:33.079Z,96.60
2018-11-13T03:45:07.154Z,96.60
2018-11-13T03:47:37.569Z,90.27
2018-11-13T03:50:10.022Z,89.53
2018-11-13T03:52:41.603Z,81.83
2018-11-13T03:55:13.177Z,93.67
2018-11-13T03:57:43.710Z,85.60
2018-11-13T04:00:18.356Z,98.30
2018-11-13T04:02:47.841Z,86.50
2018-11-13T04:05:25.996Z,96.33
2018-11-13T04:07:57.032Z,89.17
2018-11-13T04:10:27.211Z,80.47
2018-11-13T04:13:07.365Z,93.03
2018-11-13T04:15:37.290Z,88.17
2018-11-13T04:18:07.511Z,89.80
2018-11-13T04:20:37.982Z,84.57
2018-11-13T04:23:19.101Z,93.37
2018-11-13T04:25:49.607Z,90.00
2018-11-13T04:28:22.616Z,97.73
2018-11-13T04:30:55.749Z,93.13
2018-11-13T04:33:26.846Z,91.53
2018-11-13T04:35:59.086Z,88.90
2018-11-13T04:38:29.489Z,87.27
2018-11-13T04:41:01.184Z,90.87
2018-11-13T04:43:31.802Z,87.90
2018-11-13T04:46:01.429Z,88.03
2018-11-13T04:48:33.342Z,87.20
2018-11-13T04:51:05.865Z,96.40
2018-11-13T04:53:36.558Z,85.30
2018-11-13T04:56:08.009Z,76.27
2018-11-13T04:58:39.135Z,81.27
2018-11-13T05:01:10.522Z,90.83
2018-11-13T05:03:40.106Z,81.23
2018-11-13T05:06:10.028Z,90.03
2018-11-13T05:08:52.766Z,99.87
2018-11-13T05:11:58.599Z,94.57
2018-11-13T05:14:37.158Z,97.20
2018-11-13T05:17:10.005Z,95.27
2018-11-13T05:19:39.722Z,93.80
2018-11-13T05:22:13.434Z,92.30
2018-11-13T05:24:42.917Z,91.23
2018-11-13T05:29:47.448Z,103.70
2018-11-13T05:32:21.555Z,99.07
2018-11-13T05:34:59.396Z,87.60
2018-11-13T05:37:28.898Z,97.17
2018-11-13T05:39:57.841Z,89.00
2018-11-13T05:42:26.804Z,81.57
2018-11-13T05:44:55.616Z,88.00
2018-11-13T05:47:24.490Z,90.83
2018-11-13T05:52:27.662Z,91.83
2018-11-13T05:54:57.298Z,93.33
2018-11-13T05:57:26.487Z,93.60
2018-11-13T05:59:55.670Z,89.83
2018-11-13T06:02:25.450Z,84.70
2018-11-13T06:04:54.261Z,93.80
2018-11-13T06:07:24.475Z,89.07
2018-11-13T06:09:53.151Z,87.97
2018-11-13T06:12:21.835Z,90.13
2018-11-13T06:14:50.502Z,98.90
2018-11-13T06:17:21.132Z,89.67
2018-11-13T06:19:49.855Z,100.67
2018-11-13T06:22:19.422Z,85.90
2018-11-13T06:24:49.047Z,95.50
2018-11-13T06:27:18.663Z,88.00
2018-11-13T06:29:48.046Z,84.57
2018-11-13T06:32:17.399Z,82.90
2018-11-13T06:34:46.267Z,93.17
2018-11-13T06:37:14.981Z,91.00
2018-11-13T06:39:43.617Z,86.40
2018-11-13T06:42:17.454Z,84.43
2018-11-13T06:44:46.321Z,89.53
2018-11-13T06:47:15.121Z,90.47
2018-11-13T06:49:46.574Z,86.33
2018-11-13T06:52:17.263Z,89.37
2018-11-13T06:55:18.735Z,86.57
2018-11-13T06:57:48.130Z,83.90
2018-11-13T07:00:17.738Z,85.10
2018-11-13T07:02:47.152Z,83.40
2018-11-13T07:05:18.158Z,91.63
2018-11-13T07:07:47.061Z,84.23
2018-11-13T07:10:17.333Z,88.27
2018-11-13T07:12:48.167Z,78.93
2018-11-13T07:15:19.494Z,80.27
2018-11-13T07:17:49.499Z,85.23
2018-11-13T07:20:20.067Z,83.40
2018-11-13T07:22:50.655Z,81.03
2018-11-13T07:25:19.733Z,79.90
2018-11-13T07:27:48.639Z,77.93
2018-11-13T07:30:18.317Z,79.17
2018-11-13T07:32:47.211Z,80.63
2018-11-13T07:35:19.271Z,81.57
2018-11-13T07:37:51.647Z,77.10
2018-11-13T07:40:20.692Z,81.57
2018-11-13T07:42:49.590Z,75.60
2018-11-13T07:45:18.359Z,74.47
2018-11-13T07:47:49.849Z,82.57
2018-11-13T07:52:53.122Z,78.43
2018-11-13T07:55:22.169Z,76.77
2018-11-13T07:57:53.319Z,83.43
2018-11-13T08:00:23.190Z,80.80
2018-11-13T08:02:55.619Z,83.07
2018-11-13T08:05:30.512Z,74.40
2018-11-13T08:08:00.890Z,76.37
2018-11-13T08:10:31.184Z,81.90
2018-11-13T08:13:03.859Z,78.23
2018-11-13T08:15:32.785Z,80.80
2018-11-13T08:18:03.847Z,72.80
2018-11-13T08:20:32.697Z,73.17
2018-11-13T08:23:01.680Z,67.37
2018-11-13T08:25:30.439Z,73.30
2018-11-13T08:27:59.134Z,76.27
2018-11-13T08:30:30.834Z,78.40
2018-11-13T08:33:01.538Z,72.17
2018-11-13T08:35:30.453Z,80.87
2018-11-13T08:38:00.087Z,73.93
2018-11-13T08:40:31.638Z,73.77
2018-11-13T08:43:02.576Z,81.40
2018-11-13T08:45:32.070Z,74.97
2018-11-13T08:48:03.318Z,71.67
2018-11-13T08:50:33.283Z,71.43
2018-11-13T08:53:02.824Z,79.27
2018-11-13T08:55:35.813Z,72.57
2018-11-13T08:58:06.495Z,71.30
2018-11-13T09:00:36.064Z,73.27
2018-11-13T09:03:06.904Z,72.90
2018-11-13T09:05:37.174Z,73.90
2018-11-13T09:08:06.311Z,65.75
2018-11-13T09:10:37.897Z,73.12
2018-11-13T09:13:09.638Z,72.40
2018-11-13T09:15:39.870Z,59.45
2018-11-13T09:18:10.075Z,75.40
2018-11-13T09:20:41.320Z,73.37
2018-11-13T09:23:11.480Z,71.67
2018-11-13T09:25:41.042Z,65.32
2018-11-13T09:28:11.070Z,69.95
2018-11-13T09:30:42.264Z,73.25
2018-11-13T09:33:12.082Z,80.87
2018-11-13T09:35:41.439Z,76.35
2018-11-13T09:38:11.860Z,71.35
2018-11-13T09:40:41.111Z,71.67
2018-11-13T09:43:11.742Z,78.67
2018-11-13T09:45:44.453Z,69.77
2018-11-13T09:48:16.490Z,67.72
2018-11-13T09:50:47.689Z,72.80
2018-11-13T09:53:18.164Z,71.00
2018-11-13T09:55:47.090Z,73.35
2018-11-13T09:58:16.048Z,70.10
2018-11-13T10:00:48.021Z,65.87
2018-11-13T10:03:18.236Z,70.45
2018-11-13T10:05:47.300Z,67.10
2018-11-13T10:08:16.158Z,75.97
2018-11-13T10:10:45.799Z,70.47
2018-11-13T10:13:18.946Z,64.65
2018-11-13T10:15:57.400Z,65.30
2018-11-13T10:18:26.643Z,70.20
2018-11-13T10:20:59.323Z,63.87
2018-11-13T10:23:28.319Z,66.82
2018-11-13T10:26:00.801Z,70.75
2018-11-13T10:28:30.826Z,68.45
2018-11-13T10:31:02.543Z,71.12
2018-11-13T10:33:32.561Z,65.70
2018-11-13T10:36:02.217Z,73.70
2018-11-13T10:38:32.199Z,68.85
2018-11-13T10:41:01.384Z,73.02
2018-11-13T10:43:30.282Z,72.17
2018-11-13T10:46:00.011Z,67.03
2018-11-13T10:48:29.027Z,69.87
2018-11-13T10:50:59.995Z,66.00
2018-11-13T10:53:29.243Z,66.47
2018-11-13T10:55:58.351Z,68.42
2018-11-13T10:58:28.938Z,69.87
2018-11-13T11:01:04.335Z,73.97
2018-11-13T11:03:38.388Z,68.85
2018-11-13T11:06:08.610Z,70.60
2018-11-13T11:08:38.444Z,69.72
2018-11-13T11:11:09.699Z,67.97
2018-11-13T11:13:39.312Z,67.35
2018-11-13T11:16:11.217Z,67.58
2018-11-13T11:18:40.148Z,73.25
2018-11-13T11:21:10.013Z,68.50
2018-11-13T11:23:39.893Z,75.50
2018-11-13T11:26:11.634Z,71.30
2018-11-13T11:28:42.359Z,74.47
2018-11-13T11:31:13.376Z,72.32
2018-11-13T11:33:45.299Z,71.30
2018-11-13T11:36:15.195Z,69.30
2018-11-13T11:38:44.616Z,70.70
2018-11-13T11:41:15.958Z,74.58
2018-11-13T11:43:45.173Z,71.75
2018-11-13T11:46:15.275Z,68.20
2018-11-13T11:48:44.024Z,76.72
2018-11-13T11:51:14.781Z,70.87
2018-11-13T11:53:43.833Z,72.37
2018-11-13T11:56:12.770Z,73.10
2018-11-13T11:58:42.462Z,65.95
2018-11-13T12:01:12.422Z,72.32
2018-11-13T12:03:42.161Z,68.00
2018-11-13T12:06:11.028Z,65.97
2018-11-13T12:08:42.836Z,66.47
2018-11-13T12:11:12.313Z,66.75
2018-11-13T12:13:43.297Z,68.15
2018-11-13T12:16:13.979Z,66.57
2018-11-13T12:18:43.050Z,70.50
2018-11-13T12:21:12.227Z,63.95
2018-11-13T12:23:41.475Z,72.65
2018-11-13T12:26:10.246Z,68.05
2018-11-13T12:28:39.046Z,67.03
2018-11-13T12:31:10.752Z,79.30
2018-11-13T12:33:40.555Z,75.65
2018-11-13T12:36:11.268Z,71.40
2018-11-13T12:38:41.413Z,61.88
2018-11-13T12:41:10.299Z,67.95
2018-11-13T12:43:40.335Z,73.62
2018-11-13T12:46:10.029Z,70.28
2018-11-13T12:48:40.995Z,73.28
2018-11-13T12:51:15.784Z,66.22
2018-11-13T12:53:44.645Z,76.35
2018-11-13T12:56:14.191Z,69.55
2018-11-13T12:58:45.064Z,69.03
2018-11-13T13:01:15.752Z,78.72
2018-11-13T13:03:46.397Z,72.08
2018-11-13T13:06:21.371Z,71.80
2018-11-13T13:08:50.319Z,71.37
2018-11-13T13:11:19.623Z,68.62
2018-11-13T13:13:49.743Z,67.12
2018-11-13T13:16:18.735Z,75.35
2018-11-13T13:18:47.645Z,78.02
2018-11-13T13:21:17.138Z,71.12
2018-11-13T13:23:46.333Z,68.35
2018-11-13T13:26:15.224Z,69.47
2018-11-13T13:28:46.012Z,68.70
2018-11-13T13:31:16.068Z,71.85
2018-11-13T13:33:46.979Z,68.10
2018-11-13T13:36:16.539Z,62.25
2018-11-13T13:38:45.467Z,63.63
2018-11-13T13:41:14.055Z,63.50
2018-11-13T13:43:43.381Z,59.80
2018-11-13T13:46:12.224Z,61.70
2018-11-13T13:48:42.655Z,65.28
2018-11-13T13:51:13.638Z,67.95
2018-11-13T13:53:43.005Z,62.73
2018-11-13T13:56:12.527Z,66.37
2018-11-13T13:58:41.511Z,63.87
2018-11-13T14:01:10.362Z,62.00
2018-11-13T14:03:40.484Z,66.70
2018-11-13T14:06:10.237Z,66.70
2018-11-13T14:08:39.906Z,63.20
2018-11-13T14:11:09.381Z,64.92
2018-11-13T14:13:38.356Z,70.55
2018-11-13T14:16:07.737Z,62.08
2018-11-13T14:18:36.549Z,64.22
2018-11-13T14:21:05.340Z,68.33
2018-11-13T14:23:34.081Z,73.25
2018-11-13T14:26:03.020Z,71.60
2018-11-13T14:28:33.915Z,65.92
2018-11-13T14:31:04.653Z,66.75
2018-11-13T14:33:33.481Z,71.25
2018-11-13T14:36:03.907Z,66.70
2018-11-13T14:38:32.886Z,65.12
2018-11-13T14:41:01.674Z,67.75
2018-11-13T14:43:32.184Z,70.73
2018-11-13T14:46:02.647Z,69.77
2018-11-13T14:48:32.792Z,70.65
2018-11-13T14:51:03.070Z,73.35
2018-11-13T14:53:32.543Z,75.67
2018-11-13T14:56:02.242Z,71.17
2018-11-13T14:58:31.864Z,75.03
2018-11-13T15:01:00.648Z,68.33
2018-11-13T15:03:29.459Z,69.77
2018-11-13T15:05:58.384Z,64.05
2018-11-13T15:08:27.210Z,79.17
2018-11-13T15:10:57.019Z,78.12
2018-11-13T15:13:28.809Z,78.27
2018-11-13T15:15:59.363Z,78.13
2018-11-13T15:18:30.167Z,73.05
2018-11-13T15:20:59.135Z,77.32
2018-11-13T15:23:29.553Z,73.47
2018-11-13T15:26:02.683Z,79.58
2018-11-13T15:28:32.497Z,82.42
2018-11-13T15:31:01.946Z,80.32
2018-11-13T15:33:33.742Z,83.17
2018-11-13T15:36:02.733Z,80.93
2018-11-13T15:38:33.422Z,89.20
2018-11-13T15:41:03.286Z,78.60
2018-11-13T15:43:33.679Z,85.00
2018-11-13T15:46:04.743Z,85.50
2018-11-13T15:48:35.012Z,82.77
2018-11-13T15:51:09.060Z,84.97
2018-11-13T15:53:36.139Z,81.55
2018-11-13T15:56:05.787Z,81.22
2018-11-13T15:58:36.300Z,80.70
2018-11-13T16:01:05.610Z,90.20
2018-11-13T16:03:37.468Z,85.57
2018-11-13T16:06:10.737Z,85.80
2018-11-13T16:08:39.888Z,83.42
2018-11-13T16:11:10.444Z,80.03
2018-11-13T16:13:40.588Z,92.20
2018-11-13T16:16:09.714Z,89.75
2018-11-13T16:18:39.592Z,91.22
2018-11-13T16:21:09.005Z,84.15
2018-11-13T16:23:37.866Z,85.00
2018-11-13T16:26:08.255Z,92.53
2018-11-13T16:28:37.487Z,87.60
2018-11-13T16:31:06.255Z,91.90
2018-11-13T16:33:35.336Z,95.90
2018-11-13T16:36:04.142Z,103.62
2018-11-13T16:38:33.510Z,93.85
2018-11-13T16:41:02.236Z,99.45
2018-11-13T16:43:31.005Z,84.00
2018-11-13T16:45:59.721Z,89.80
2018-11-13T16:48:29.280Z,91.92
2018-11-13T16:51:01.415Z,89.73
2018-11-13T16:53:34.285Z,93.70
2018-11-13T16:56:03.426Z,99.40
2018-11-13T16:58:32.112Z,89.17
2018-11-13T17:01:00.890Z,93.05
2018-11-13T17:03:29.668Z,93.73
2018-11-13T17:05:58.970Z,92.20
2018-11-13T17:08:27.532Z,87.75
2018-11-13T17:10:56.278Z,89.17
2018-11-13T17:13:25.277Z,100.47
2018-11-13T17:15:54.164Z,94.22
2018-11-13T17:18:22.976Z,97.33
2018-11-13T17:20:51.748Z,90.17
2018-11-13T17:23:20.456Z,86.65
2018-11-13T17:25:49.314Z,94.10
2018-11-13T17:28:19.069Z,90.30
2018-11-13T17:30:48.356Z,106.92
2018-11-13T17:33:19.790Z,100.02
2018-11-13T17:35:52.762Z,106.65
2018-11-13T17:38:22.137Z,114.17
2018-11-13T17:40:50.846Z,129.18
2018-11-13T17:43:19.953Z,94.47
2018-11-13T17:45:49.994Z,90.97
2018-11-13T17:48:19.454Z,97.87
2018-11-13T17:50:48.254Z,101.62
2018-11-13T17:53:17.583Z,95.40
2018-11-13T17:55:46.423Z,92.87
2018-11-13T17:58:15.919Z,99.45
2018-11-13T18:00:46.341Z,156.87
2018-11-13T18:03:16.293Z,105.27
2018-11-13T18:05:46.004Z,109.15
2018-11-13T18:08:15.110Z,188.70
2018-11-13T18:10:45.047Z,138.52
2018-11-13T18:13:13.888Z,114.75
2018-11-13T18:15:42.724Z,127.53
2018-11-13T18:18:12.096Z,132.65
2018-11-13T18:20:41.721Z,142.93
2018-11-13T18:23:10.659Z,129.27
2018-11-13T18:25:39.378Z,136.00
2018-11-13T18:28:08.560Z,142.13
2018-11-13T18:30:38.185Z,119.90
2018-11-13T18:33:08.216Z,115.07
2018-11-13T18:35:38.196Z,128.20
2018-11-13T18:38:09.965Z,111.83
2018-11-13T18:40:39.098Z,106.63
2018-11-13T18:43:07.876Z,100.47
2018-11-13T18:45:38.336Z,102.25
2018-11-13T18:48:08.224Z,96.57
2018-11-13T18:50:38.887Z,109.20
2018-11-13T18:53:07.725Z,105.23
2018-11-13T18:55:36.644Z,105.13
2018-11-13T18:58:05.691Z,101.60
2018-11-13T19:00:37.353Z,104.17
2018-11-13T19:03:07.747Z,110.33
2018-11-13T19:05:36.921Z,98.17
2018-11-13T19:08:06.313Z,85.05
2018-11-13T19:10:42.738Z,76.90
2018-11-13T19:13:15.486Z,76.23
2018-11-13T19:15:46.810Z,73.40
2018-11-13T19:18:16.411Z,67.57
2018-11-13T19:20:45.249Z,69.43
2018-11-13T19:23:14.036Z,59.60
2018-11-13T19:25:43.153Z,47.37
2018-11-13T19:28:12.090Z,57.43
2018-11-13T19:30:40.903Z,47.57
2018-11-13T19:33:09.989Z,50.30
2018-11-13T19:35:44.122Z,53.33
2018-11-13T19:38:14.917Z,51.10
2018-11-13T19:40:44.932Z,50.97
2018-11-13T19:43:16.016Z,51.90
2018-11-13T19:45:45.077Z,50.17
2018-11-13T19:48:14.541Z,47.27
2018-11-13T19:50:43.374Z,49.10
2018-11-13T19:53:12.311Z,48.37
2018-11-13T19:55:41.049Z,58.47
2018-11-13T19:58:09.852Z,56.63
2018-11-13T20:00:39.802Z,54.00
2018-11-13T20:03:09.782Z,54.40
2018-11-13T20:05:38.612Z,62.67
2018-11-13T20:08:08.291Z,64.10
2018-11-13T20:10:39.323Z,69.80
2018-11-13T20:13:09.212Z,53.77
2018-11-13T20:15:38.687Z,76.93
2018-11-13T20:18:08.397Z,59.93
2018-11-13T20:20:37.209Z,68.87
2018-11-13T20:23:08.045Z,64.20
2018-11-13T20:25:37.102Z,61.23
2018-11-13T20:28:05.811Z,60.10
2018-11-13T20:30:35.757Z,51.77
2018-11-13T20:33:04.447Z,55.47
2018-11-13T20:35:33.891Z,58.10
2018-11-13T20:38:03.167Z,69.27
2018-11-13T20:40:33.199Z,55.43
2018-11-13T20:43:03.141Z,52.40
2018-11-13T20:45:31.752Z,51.07
2018-11-13T20:48:00.528Z,53.97
2018-11-13T20:50:30.576Z,56.33
2018-11-13T20:52:59.198Z,57.17
2018-11-13T20:55:28.019Z,48.30
2018-11-13T20:57:56.782Z,43.50
2018-11-13T21:00:33.764Z,44.30
2018-11-13T21:03:02.434Z,47.13
2018-11-13T21:05:35.054Z,41.70
2018-11-13T21:08:03.845Z,40.50
2018-11-13T21:10:34.404Z,47.90
2018-11-13T21:13:03.690Z,37.90
2018-11-13T21:15:32.372Z,38.80
2018-11-13T21:18:01.159Z,42.93
2018-11-13T21:20:29.831Z,36.60
2018-11-13T21:22:58.460Z,40.33
2018-11-13T21:25:27.641Z,38.20
2018-11-13T21:27:58.189Z,38.23
2018-11-13T21:30:27.981Z,43.07
2018-11-13T21:32:56.588Z,42.47
2018-11-13T21:35:25.291Z,38.00
2018-11-13T21:37:55.459Z,45.70
2018-11-13T21:40:25.316Z,40.70
2018-11-13T21:42:54.918Z,38.90
2018-11-13T21:45:24.528Z,37.00
2018-11-13T21:47:53.376Z,42.70
2018-11-13T21:50:23.272Z,31.37
2018-11-13T21:52:51.949Z,38.53
2018-11-13T21:55:22.704Z,31.97
2018-11-13T21:57:51.470Z,38.37
2018-11-13T22:00:27.561Z,43.77
2018-11-13T22:02:59.675Z,34.50
2018-11-13T22:05:29.691Z,38.47
2018-11-13T22:07:58.691Z,31.93
2018-11-13T22:10:27.449Z,35.37
2018-11-13T22:12:56.214Z,38.53
2018-11-13T22:15:26.055Z,38.70
2018-11-13T22:17:54.688Z,39.30
2018-11-13T22:20:23.899Z,43.63
2018-11-13T22:22:53.780Z,37.70
2018-11-13T22:25:24.019Z,36.50
2018-11-13T22:27:53.899Z,39.63
2018-11-13T22:30:30.387Z,38.60
2018-11-13T22:32:59.014Z,40.60
2018-11-13T22:35:27.712Z,39.97
2018-11-13T22:37:56.524Z,35.53
2018-11-13T22:40:26.661Z,44.30
2018-11-13T22:42:55.295Z,42.23
2018-11-13T22:45:25.292Z,41.03
2018-11-13T22:47:54.296Z,42.80
2018-11-13T22:50:28.489Z,36.93
2018-11-13T22:52:57.272Z,41.23
2018-11-13T22:55:25.920Z,38.83
2018-11-13T22:57:55.607Z,38.33
2018-11-13T23:00:53.459Z,40.33
2018-11-13T23:03:22.140Z,37.73
2018-11-13T23:05:51.118Z,40.60
2018-11-13T23:08:20.818Z,42.07
2018-11-13T23:10:50.241Z,41.60
2018-11-13T23:13:18.928Z,43.90
2018-11-13T23:15:47.682Z,38.03
2018-11-13T23:18:16.352Z,38.53
2018-11-13T23:20:45.821Z,38.80
2018-11-13T23:23:14.513Z,41.03
2018-11-13T23:25:43.176Z,38.17
2018-11-13T23:28:11.868Z,41.83
2018-11-13T23:30:40.495Z,37.50
2018-11-13T23:33:09.429Z,36.37
2018-11-13T23:35:37.789Z,37.27
2018-11-13T23:38:06.698Z,31.10
2018-11-13T23:40:35.857Z,39.03
2018-11-13T23:43:04.291Z,34.87
2018-11-13T23:45:33.050Z,34.33
2018-11-13T23:48:02.137Z,36.83
2018-11-13T23:50:30.649Z,36.90
2018-11-13T23:52:59.328Z,36.03
2018-11-13T23:55:28.125Z,34.17
2018-11-13T23:57:56.761Z,34.63
